createdAt,value
2024-05-09T00:01:18.813Z,1.92
2024-05-09T00:03:49.332Z,1.33
2024-05-09T00:06:19.531Z,1.33
2024-05-09T00:08:50.648Z,1.40
2024-05-09T00:11:21.824Z,1.10
2024-05-09T00:13:52.154Z,0.95
2024-05-09T00:16:22.035Z,1.02
2024-05-09T00:18:52.965Z,0.70
2024-05-09T00:21:23.699Z,1.05
2024-05-09T00:23:54.129Z,1.00
2024-05-09T00:26:25.480Z,1.13
2024-05-09T00:28:55.759Z,0.88
2024-05-09T00:31:27.875Z,0.75
2024-05-09T00:33:59.358Z,1.13
2024-05-09T00:36:29.625Z,0.95
2024-05-09T00:38:59.456Z,0.80
2024-05-09T00:41:30.194Z,1.13
2024-05-09T00:44:01.983Z,1.00
2024-05-09T00:46:32.430Z,0.80
2024-05-09T00:49:02.912Z,0.90
2024-05-09T00:51:34.828Z,0.90
2024-05-09T00:54:06.644Z,0.70
2024-05-09T00:56:37.661Z,0.60
2024-05-09T00:59:08.480Z,0.60
2024-05-09T01:01:39.187Z,0.68
2024-05-09T01:04:10.707Z,0.75
2024-05-09T01:06:41.680Z,0.50
2024-05-09T01:09:11.578Z,3.60
2024-05-09T01:11:43.270Z,0.50
2024-05-09T01:14:14.347Z,0.47
2024-05-09T01:16:44.375Z,0.50
2024-05-09T01:19:25.106Z,0.50
2024-05-09T01:21:56.132Z,0.60
2024-05-09T01:24:27.166Z,0.70
2024-05-09T01:26:57.180Z,0.52
2024-05-09T01:29:27.176Z,0.70
2024-05-09T01:32:00.587Z,0.50
2024-05-09T01:34:31.132Z,0.75
2024-05-09T01:37:01.914Z,0.65
2024-05-09T01:39:33.934Z,1.33
2024-05-09T01:42:04.389Z,0.57
2024-05-09T01:44:35.073Z,0.65
2024-05-09T01:47:06.872Z,0.40
2024-05-09T01:49:38.635Z,0.60
2024-05-09T01:52:09.478Z,0.40
2024-05-09T01:54:39.928Z,0.70
2024-05-09T01:57:11.415Z,0.50
2024-05-09T01:59:42.044Z,0.50
2024-05-09T02:02:13.082Z,0.70
2024-05-09T02:04:43.902Z,0.60
2024-05-09T02:07:15.439Z,0.40
2024-05-09T02:09:45.269Z,0.43
2024-05-09T02:12:15.675Z,0.40
2024-05-09T02:14:46.365Z,0.35
2024-05-09T02:17:17.233Z,0.90
2024-05-09T02:19:47.521Z,0.45
2024-05-09T02:22:18.033Z,0.60
2024-05-09T02:24:47.849Z,0.50
2024-05-09T02:27:17.897Z,0.70
2024-05-09T02:29:48.253Z,0.85
2024-05-09T02:32:19.176Z,0.60
2024-05-09T02:34:49.881Z,0.40
2024-05-09T02:37:20.955Z,0.70
2024-05-09T02:39:52.352Z,0.40
2024-05-09T02:42:22.886Z,1.67
2024-05-09T02:44:53.155Z,0.57
2024-05-09T02:47:23.199Z,0.32
2024-05-09T02:49:53.621Z,0.70
2024-05-09T02:52:23.717Z,0.55
2024-05-09T02:54:55.113Z,0.60
2024-05-09T02:57:25.788Z,0.60
2024-05-09T02:59:55.715Z,0.60
2024-05-09T03:02:26.311Z,0.50
2024-05-09T03:04:57.243Z,0.35
2024-05-09T03:07:27.252Z,0.40
2024-05-09T03:09:57.472Z,0.40
2024-05-09T03:12:30.122Z,0.40
2024-05-09T03:15:01.265Z,0.50
2024-05-09T03:17:32.145Z,0.40
2024-05-09T03:20:06.903Z,0.57
2024-05-09T03:22:40.078Z,0.55
2024-05-09T03:25:10.646Z,0.40
2024-05-09T03:27:40.737Z,0.22
2024-05-09T03:30:15.544Z,0.30
2024-05-09T03:32:48.722Z,0.30
2024-05-09T03:35:19.696Z,0.40
2024-05-09T03:37:50.059Z,0.63
2024-05-09T03:40:23.826Z,0.60
2024-05-09T03:42:57.045Z,0.50
2024-05-09T03:45:27.939Z,0.47
2024-05-09T03:47:58.629Z,0.32
2024-05-09T03:50:33.847Z,0.50
2024-05-09T03:53:06.738Z,0.50
2024-05-09T03:55:37.242Z,0.47
2024-05-09T03:58:09.681Z,0.38
2024-05-09T04:00:40.590Z,0.45
2024-05-09T04:03:12.687Z,0.50
2024-05-09T04:05:45.250Z,0.60
2024-05-09T04:08:16.638Z,0.50
2024-05-09T04:10:47.239Z,0.40
2024-05-09T04:13:17.801Z,0.65
2024-05-09T04:15:48.235Z,0.40
2024-05-09T04:18:19.991Z,0.50
2024-05-09T04:20:50.340Z,0.50
2024-05-09T04:23:20.268Z,0.50
2024-05-09T04:25:50.592Z,0.50
2024-05-09T04:28:21.465Z,0.40
2024-05-09T04:30:52.917Z,0.60
2024-05-09T04:33:23.264Z,0.45
2024-05-09T04:35:55.439Z,0.45
2024-05-09T04:38:26.026Z,0.50
2024-05-09T04:40:57.214Z,0.50
2024-05-09T04:43:27.535Z,0.50
2024-05-09T04:45:58.678Z,0.50
2024-05-09T04:48:30.378Z,0.38
2024-05-09T04:51:03.237Z,0.32
2024-05-09T04:53:33.795Z,0.45
2024-05-09T04:56:04.722Z,0.82
2024-05-09T04:58:34.957Z,0.47
2024-05-09T05:01:06.212Z,0.50
2024-05-09T05:03:36.926Z,0.60
2024-05-09T05:06:07.520Z,0.55
2024-05-09T05:08:37.966Z,0.40
2024-05-09T05:11:08.894Z,0.32
2024-05-09T05:13:41.319Z,0.45
2024-05-09T05:16:12.896Z,0.50
2024-05-09T05:18:45.696Z,0.47
2024-05-09T05:21:16.840Z,0.50
2024-05-09T05:23:46.925Z,0.45
2024-05-09T05:26:21.404Z,0.50
2024-05-09T05:28:52.146Z,0.50
2024-05-09T05:31:23.092Z,0.60
2024-05-09T05:33:53.567Z,0.60
2024-05-09T05:36:24.854Z,0.63
2024-05-09T05:38:55.529Z,0.52
2024-05-09T05:41:25.896Z,0.50
2024-05-09T05:43:56.297Z,0.40
2024-05-09T05:46:26.581Z,0.80
2024-05-09T05:48:57.391Z,0.60
2024-05-09T05:51:28.092Z,0.50
2024-05-09T05:53:58.204Z,0.75
2024-05-09T05:56:31.319Z,0.70
2024-05-09T05:59:02.092Z,0.60
2024-05-09T06:01:33.876Z,0.63
2024-05-09T06:04:04.553Z,0.60
2024-05-09T06:06:34.392Z,0.60
2024-05-09T06:09:05.067Z,0.65
2024-05-09T06:11:36.152Z,0.70
2024-05-09T06:14:06.689Z,0.75
2024-05-09T06:16:37.269Z,0.50
2024-05-09T06:19:09.023Z,0.60
2024-05-09T06:21:39.599Z,0.70
2024-05-09T06:24:09.656Z,0.60
2024-05-09T06:26:43.773Z,0.80
2024-05-09T06:29:17.417Z,0.50
2024-05-09T06:31:48.470Z,0.70
2024-05-09T06:34:20.735Z,0.70
2024-05-09T06:36:51.038Z,0.65
2024-05-09T06:39:20.849Z,0.70
2024-05-09T06:41:51.809Z,0.90
2024-05-09T06:44:22.054Z,0.90
2024-05-09T06:46:53.334Z,0.70
2024-05-09T06:49:24.527Z,0.77
2024-05-09T06:51:54.817Z,0.70
2024-05-09T06:54:26.552Z,0.70
2024-05-09T06:56:57.322Z,0.70
2024-05-09T06:59:27.663Z,0.70
2024-05-09T07:01:57.531Z,0.73
2024-05-09T07:04:27.835Z,0.70
2024-05-09T07:06:59.759Z,0.80
2024-05-09T07:09:31.892Z,0.70
2024-05-09T07:12:02.213Z,0.57
2024-05-09T07:14:33.827Z,0.60
2024-05-09T07:17:05.568Z,0.70
2024-05-09T07:19:36.538Z,0.95
2024-05-09T07:22:06.688Z,0.80
2024-05-09T07:24:38.675Z,0.80
2024-05-09T07:27:09.321Z,1.00
2024-05-09T07:29:39.713Z,1.00
2024-05-09T07:32:10.437Z,0.82
2024-05-09T07:34:40.366Z,1.00
2024-05-09T07:37:13.925Z,0.90
2024-05-09T07:39:44.634Z,0.88
2024-05-09T07:42:15.326Z,0.93
2024-05-09T07:44:45.697Z,0.80
2024-05-09T07:48:28.886Z,1.00
2024-05-09T07:52:22.660Z,1.00
2024-05-09T07:55:30.613Z,1.10
2024-05-09T07:58:01.126Z,0.70
2024-05-09T08:00:32.542Z,0.90
2024-05-09T08:03:03.218Z,0.80
2024-05-09T08:05:33.657Z,0.90
2024-05-09T08:08:03.565Z,0.70
2024-05-09T08:10:36.280Z,1.02
2024-05-09T08:13:07.819Z,0.98
2024-05-09T08:15:39.035Z,0.80
2024-05-09T08:18:12.767Z,0.80
2024-05-09T08:20:44.374Z,1.00
2024-05-09T08:23:15.450Z,1.10
2024-05-09T08:25:46.185Z,1.00
2024-05-09T08:28:16.692Z,1.20
2024-05-09T08:30:47.975Z,1.30
2024-05-09T08:33:18.730Z,1.13
2024-05-09T08:35:48.587Z,0.95
2024-05-09T08:38:19.140Z,1.05
2024-05-09T08:40:50.854Z,1.55
2024-05-09T08:43:21.865Z,1.20
2024-05-09T08:45:53.647Z,1.27
2024-05-09T08:48:25.678Z,1.08
2024-05-09T08:51:00.325Z,1.08
2024-05-09T08:53:31.217Z,1.40
2024-05-09T08:56:04.077Z,1.33
2024-05-09T08:58:36.448Z,1.33
2024-05-09T09:01:07.067Z,1.20
2024-05-09T09:03:39.682Z,1.08
2024-05-09T09:06:17.959Z,1.30
2024-05-09T09:08:49.036Z,1.30
2024-05-09T09:11:19.425Z,1.33
2024-05-09T09:13:49.948Z,1.20
2024-05-09T09:16:21.358Z,1.30
2024-05-09T09:18:52.554Z,1.00
2024-05-09T09:21:24.130Z,1.27
2024-05-09T09:23:55.040Z,1.45
2024-05-09T09:26:26.450Z,1.30
2024-05-09T09:29:03.091Z,1.40
2024-05-09T09:31:34.068Z,1.58
2024-05-09T09:34:10.133Z,1.73
2024-05-09T09:36:44.336Z,1.45
2024-05-09T09:39:18.344Z,1.52
2024-05-09T09:41:50.097Z,1.40
2024-05-09T09:44:23.391Z,1.63
2024-05-09T09:46:58.654Z,1.48
2024-05-09T09:49:37.779Z,1.33
2024-05-09T09:52:10.975Z,1.45
2024-05-09T09:54:41.862Z,1.30
2024-05-09T09:57:13.059Z,1.30
2024-05-09T09:59:47.529Z,1.60
2024-05-09T10:02:18.649Z,1.70
2024-05-09T10:04:49.248Z,1.58
2024-05-09T10:07:22.361Z,1.55
2024-05-09T10:09:57.609Z,1.70
2024-05-09T10:12:28.528Z,1.40
2024-05-09T10:14:58.943Z,1.63
2024-05-09T10:17:31.179Z,1.50
2024-05-09T10:20:21.339Z,1.70
2024-05-09T10:22:55.661Z,1.83
2024-05-09T10:25:27.180Z,1.70
2024-05-09T10:27:58.120Z,1.80
2024-05-09T10:30:34.245Z,1.63
2024-05-09T10:33:12.910Z,1.65
2024-05-09T10:35:55.887Z,2.30
2024-05-09T10:38:28.416Z,2.20
2024-05-09T10:41:01.614Z,2.53
2024-05-09T10:43:34.011Z,2.47
2024-05-09T10:46:05.907Z,3.03
2024-05-09T10:48:39.223Z,2.72
2024-05-09T10:51:10.079Z,2.97
2024-05-09T10:53:44.715Z,2.70
2024-05-09T10:56:18.762Z,2.55
2024-05-09T10:58:52.700Z,2.55
2024-05-09T11:01:23.411Z,2.30
2024-05-09T11:03:54.222Z,2.60
2024-05-09T11:06:26.143Z,1.63
2024-05-09T11:08:58.861Z,1.95
2024-05-09T11:11:29.408Z,1.95
2024-05-09T11:13:59.541Z,2.03
2024-05-09T11:16:29.990Z,1.52
2024-05-09T11:19:01.183Z,2.10
2024-05-09T11:21:31.380Z,1.85
2024-05-09T11:24:01.236Z,1.45
2024-05-09T11:26:33.663Z,2.08
2024-05-09T11:29:04.504Z,1.48
2024-05-09T11:31:38.264Z,2.15
2024-05-09T11:34:11.848Z,2.30
2024-05-09T11:36:42.530Z,1.92
2024-05-09T11:39:13.228Z,2.67
2024-05-09T11:41:44.496Z,3.35
2024-05-09T11:44:14.537Z,1.77
2024-05-09T11:46:45.074Z,1.38
2024-05-09T11:49:15.894Z,1.13
2024-05-09T11:51:46.647Z,1.00
2024-05-09T11:54:17.689Z,1.33
2024-05-09T11:56:48.124Z,1.38
2024-05-09T11:59:18.020Z,1.10
2024-05-09T12:01:48.790Z,1.10
2024-05-09T12:04:19.554Z,1.15
2024-05-09T12:06:50.688Z,2.95
2024-05-09T12:09:20.585Z,1.20
2024-05-09T12:11:50.824Z,1.20
2024-05-09T12:14:22.042Z,2.22
2024-05-09T12:16:52.538Z,0.95
2024-05-09T12:19:22.478Z,1.02
2024-05-09T12:21:53.252Z,0.90
2024-05-09T12:24:25.026Z,1.70
2024-05-09T12:26:55.634Z,1.00
2024-05-09T12:29:26.340Z,0.90
2024-05-09T12:31:56.535Z,1.10
2024-05-09T12:34:27.300Z,1.20
2024-05-09T12:36:57.882Z,1.10
2024-05-09T12:39:29.091Z,0.93
2024-05-09T12:42:00.281Z,0.90
2024-05-09T12:44:30.528Z,0.80
2024-05-09T12:47:01.219Z,0.60
2024-05-09T12:49:32.391Z,0.90
2024-05-09T12:52:04.686Z,0.90
2024-05-09T12:54:35.113Z,0.80
2024-05-09T12:57:05.136Z,0.98
2024-05-09T12:59:35.331Z,0.70
2024-05-09T13:02:06.209Z,0.70
2024-05-09T13:04:37.248Z,0.80
2024-05-09T13:07:08.366Z,0.90
2024-05-09T13:09:38.402Z,1.20
2024-05-09T13:12:09.520Z,1.10
2024-05-09T13:14:40.442Z,1.23
2024-05-09T13:17:10.822Z,1.00
2024-05-09T13:19:41.029Z,1.02
2024-05-09T13:22:11.505Z,2.33
2024-05-09T13:24:42.293Z,1.15
2024-05-09T13:27:12.466Z,0.82
2024-05-09T13:29:44.336Z,0.80
2024-05-09T13:32:15.390Z,1.00
2024-05-09T13:34:46.747Z,0.73
2024-05-09T13:37:18.123Z,0.73
2024-05-09T13:39:48.643Z,0.90
2024-05-09T13:42:19.661Z,1.05
2024-05-09T13:44:50.517Z,0.70
2024-05-09T13:47:20.929Z,0.68
2024-05-09T13:49:51.543Z,0.88
2024-05-09T13:52:21.955Z,1.00
2024-05-09T13:54:52.923Z,0.70
2024-05-09T13:57:23.649Z,0.80
2024-05-09T13:59:53.702Z,0.90
2024-05-09T14:02:24.100Z,0.70
2024-05-09T14:04:54.703Z,0.80
2024-05-09T14:07:25.615Z,1.00
2024-05-09T14:09:55.569Z,0.90
2024-05-09T14:12:26.057Z,0.95
2024-05-09T14:14:55.933Z,0.93
2024-05-09T14:17:26.668Z,0.60
2024-05-09T14:19:57.082Z,0.60
2024-05-09T14:22:27.624Z,1.00
2024-05-09T14:24:57.579Z,0.70
2024-05-09T14:27:28.143Z,0.80
2024-05-09T14:29:59.127Z,0.80
2024-05-09T14:32:29.626Z,0.88
2024-05-09T14:34:59.832Z,0.90
2024-05-09T14:37:30.011Z,0.90
2024-05-09T14:40:00.449Z,0.98
2024-05-09T14:42:33.824Z,0.80
2024-05-09T14:45:04.934Z,1.00
2024-05-09T14:47:35.880Z,0.90
2024-05-09T14:50:08.989Z,0.60
2024-05-09T14:52:41.589Z,0.90
2024-05-09T14:55:12.454Z,0.80
2024-05-09T14:57:43.503Z,0.70
2024-05-09T15:00:21.077Z,0.90
2024-05-09T15:02:57.481Z,1.13
2024-05-09T15:05:28.430Z,0.90
2024-05-09T15:07:59.869Z,0.80
2024-05-09T15:10:34.781Z,0.75
2024-05-09T15:13:09.618Z,0.80
2024-05-09T15:15:41.861Z,0.70
2024-05-09T15:18:12.471Z,0.68
2024-05-09T15:20:43.050Z,0.82
2024-05-09T15:23:14.479Z,0.73
2024-05-09T15:25:45.968Z,0.95
2024-05-09T15:28:16.869Z,0.77
2024-05-09T15:30:47.369Z,1.00
2024-05-09T15:33:17.755Z,0.90
2024-05-09T15:35:49.763Z,0.93
2024-05-09T15:38:21.092Z,0.90
2024-05-09T15:40:51.580Z,1.17
2024-05-09T15:43:21.658Z,0.80
2024-05-09T15:45:53.302Z,0.80
2024-05-09T15:48:24.348Z,0.63
2024-05-09T15:50:55.458Z,0.80
2024-05-09T15:53:26.248Z,0.75
2024-05-09T15:55:56.193Z,0.70
2024-05-09T15:58:27.260Z,0.80
2024-05-09T16:00:58.037Z,2.22
2024-05-09T16:03:29.808Z,1.00
2024-05-09T16:06:00.165Z,1.10
2024-05-09T16:08:30.154Z,0.90
2024-05-09T16:11:01.144Z,0.80
2024-05-09T16:13:31.704Z,0.88
2024-05-09T16:16:02.831Z,0.90
2024-05-09T16:18:33.645Z,0.90
2024-05-09T16:21:04.088Z,0.93
2024-05-09T16:23:35.706Z,0.90
2024-05-09T16:26:06.285Z,0.90
2024-05-09T16:28:37.922Z,0.93
2024-05-09T16:31:08.293Z,0.90
2024-05-09T16:33:38.333Z,1.20
2024-05-09T16:36:10.165Z,0.90
2024-05-09T16:38:42.151Z,0.90
2024-05-09T16:41:12.693Z,0.93
2024-05-09T16:43:42.855Z,0.90
2024-05-09T16:46:13.263Z,1.00
2024-05-09T16:48:48.878Z,0.90
2024-05-09T16:51:20.633Z,1.20
2024-05-09T16:53:51.158Z,1.00
2024-05-09T16:56:24.971Z,0.93
2024-05-09T16:58:55.469Z,1.23
2024-05-09T17:01:25.823Z,0.95
2024-05-09T17:03:56.775Z,1.20
2024-05-09T17:06:27.536Z,1.00
2024-05-09T17:09:04.848Z,1.00
2024-05-09T17:11:38.779Z,0.90
2024-05-09T17:14:09.132Z,1.00
2024-05-09T17:16:39.842Z,1.05
2024-05-09T17:19:11.031Z,0.80
2024-05-09T17:21:42.284Z,0.95
2024-05-09T17:24:13.253Z,1.60
2024-05-09T17:26:43.655Z,0.90
2024-05-09T17:29:14.136Z,0.98
2024-05-09T17:31:45.074Z,0.90
2024-05-09T17:34:15.873Z,0.85
2024-05-09T17:36:46.811Z,0.80
2024-05-09T17:39:16.766Z,0.90
2024-05-09T17:41:47.724Z,1.05
2024-05-09T17:44:18.791Z,0.90
2024-05-09T17:46:50.717Z,0.75
2024-05-09T17:49:21.234Z,1.00
2024-05-09T17:51:56.408Z,0.98
2024-05-09T17:54:27.933Z,1.10
2024-05-09T17:56:58.229Z,1.00
2024-05-09T17:59:28.269Z,0.82
2024-05-09T18:01:59.370Z,0.90
2024-05-09T18:04:33.296Z,1.00
2024-05-09T18:07:05.295Z,0.80
2024-05-09T18:09:35.664Z,0.90
2024-05-09T18:12:06.462Z,0.80
2024-05-09T18:14:37.386Z,0.88
2024-05-09T18:17:07.979Z,0.98
2024-05-09T18:19:38.395Z,1.10
2024-05-09T18:22:08.550Z,0.80
2024-05-09T18:24:39.791Z,0.80
2024-05-09T18:27:11.245Z,0.82
2024-05-09T18:29:42.195Z,0.95
2024-05-09T18:32:12.955Z,0.90
2024-05-09T18:34:44.025Z,1.02
2024-05-09T18:37:14.571Z,0.85
2024-05-09T18:39:44.678Z,1.05
2024-05-09T18:42:15.464Z,1.05
2024-05-09T18:44:45.820Z,0.82
2024-05-09T18:47:19.850Z,1.20
2024-05-09T18:49:50.861Z,1.05
2024-05-09T18:52:21.501Z,1.20
2024-05-09T18:54:51.886Z,1.40
2024-05-09T18:57:23.881Z,1.23
2024-05-09T18:59:53.971Z,1.00
2024-05-09T19:02:24.007Z,1.02
2024-05-09T19:04:54.577Z,1.10
2024-05-09T19:07:24.975Z,1.40
2024-05-09T19:09:56.051Z,1.23
2024-05-09T19:12:26.778Z,1.30
2024-05-09T19:14:56.666Z,1.10
2024-05-09T19:17:27.509Z,1.33
2024-05-09T19:19:58.211Z,1.35
2024-05-09T19:22:29.406Z,1.30
2024-05-09T19:24:59.722Z,1.13
2024-05-09T19:27:30.232Z,1.50
2024-05-09T19:30:01.254Z,1.13
2024-05-09T19:32:31.401Z,1.30
2024-05-09T19:35:01.708Z,1.30
2024-05-09T19:37:33.013Z,1.30
2024-05-09T19:40:06.662Z,1.50
2024-05-09T19:42:38.634Z,1.15
2024-05-09T19:45:09.657Z,1.60
2024-05-09T19:47:41.053Z,1.50
2024-05-09T19:50:16.298Z,1.50
2024-05-09T19:52:53.112Z,1.58
2024-05-09T19:55:23.268Z,1.50
2024-05-09T19:57:54.507Z,1.50
2024-05-09T20:00:32.694Z,1.40
2024-05-09T20:03:06.722Z,1.30
2024-05-09T20:05:38.181Z,1.90
2024-05-09T20:08:10.014Z,1.52
2024-05-09T20:10:40.868Z,1.50
2024-05-09T20:13:11.115Z,0.90
2024-05-09T20:15:41.308Z,1.20
2024-05-09T20:18:12.062Z,1.00
2024-05-09T20:20:44.993Z,0.95
2024-05-09T20:23:17.014Z,0.88
2024-05-09T20:25:47.357Z,1.02
2024-05-09T20:28:17.443Z,0.82
2024-05-09T20:30:48.278Z,1.08
2024-05-09T20:33:19.218Z,0.90
2024-05-09T20:35:49.941Z,0.60
2024-05-09T20:38:19.939Z,0.65
2024-05-09T20:40:50.102Z,0.63
2024-05-09T20:43:21.083Z,0.60
2024-05-09T20:45:52.142Z,1.02
2024-05-09T20:48:23.146Z,0.68
2024-05-09T20:50:53.632Z,0.77
2024-05-09T20:53:24.002Z,0.55
2024-05-09T20:55:54.864Z,0.80
2024-05-09T20:58:25.755Z,0.65
2024-05-09T21:00:56.773Z,0.70
2024-05-09T21:03:27.230Z,0.75
2024-05-09T21:05:58.403Z,0.68
2024-05-09T21:08:29.679Z,1.02
2024-05-09T21:11:00.566Z,0.47
2024-05-09T21:13:30.706Z,0.55
2024-05-09T21:16:01.305Z,0.60
2024-05-09T21:18:32.318Z,0.80
2024-05-09T21:21:02.825Z,0.55
2024-05-09T21:23:33.319Z,0.35
2024-05-09T21:26:04.213Z,0.30
2024-05-09T21:28:34.548Z,0.40
2024-05-09T21:31:05.086Z,0.45
2024-05-09T21:33:35.499Z,0.50
2024-05-09T21:36:06.122Z,0.45
2024-05-09T21:38:37.169Z,0.30
2024-05-09T21:41:09.314Z,0.60
2024-05-09T21:43:39.980Z,0.50
2024-05-09T21:46:10.412Z,0.80
2024-05-09T21:48:41.285Z,0.85
2024-05-09T21:51:15.930Z,0.82
2024-05-09T21:53:46.040Z,0.60
2024-05-09T21:56:15.991Z,0.60
2024-05-09T21:58:46.290Z,0.70
2024-05-09T22:01:17.045Z,0.50
2024-05-09T22:03:48.411Z,0.60
2024-05-09T22:06:19.099Z,0.40
2024-05-09T22:08:49.670Z,0.63
2024-05-09T22:11:20.485Z,0.40
2024-05-09T22:13:52.915Z,0.30
2024-05-09T22:16:24.486Z,0.57
2024-05-09T22:18:55.007Z,0.52
2024-05-09T22:21:25.441Z,0.55
2024-05-09T22:23:56.278Z,0.55
2024-05-09T22:26:26.350Z,0.77
2024-05-09T22:28:56.674Z,0.77
2024-05-09T22:31:28.071Z,0.35
2024-05-09T22:33:59.495Z,0.30
2024-05-09T22:36:29.948Z,0.35
2024-05-09T22:38:59.854Z,0.32
2024-05-09T22:41:31.017Z,0.40
2024-05-09T22:44:03.206Z,0.40
2024-05-09T22:46:33.678Z,0.40
2024-05-09T22:49:03.833Z,0.47
2024-05-09T22:51:36.837Z,0.43
2024-05-09T22:54:07.290Z,0.40
2024-05-09T22:56:37.334Z,0.40
2024-05-09T22:59:08.275Z,0.40
2024-05-09T23:01:39.522Z,0.55
2024-05-09T23:04:10.924Z,0.40
2024-05-09T23:06:44.329Z,0.38
2024-05-09T23:09:14.997Z,0.28
2024-05-09T23:11:47.295Z,0.52
2024-05-09T23:14:17.991Z,0.47
2024-05-09T23:16:49.998Z,0.30
2024-05-09T23:19:20.430Z,0.50
2024-05-09T23:21:50.735Z,0.30
2024-05-09T23:24:21.918Z,0.35
2024-05-09T23:26:52.519Z,0.57
2024-05-09T23:29:22.455Z,0.50
2024-05-09T23:31:52.477Z,0.52
2024-05-09T23:34:23.205Z,0.68
2024-05-09T23:36:53.968Z,0.52
2024-05-09T23:39:24.547Z,0.40
2024-05-09T23:41:54.400Z,0.60
2024-05-09T23:44:24.695Z,0.38
2024-05-09T23:46:55.257Z,1.02
2024-05-09T23:49:25.983Z,0.60
2024-05-09T23:51:56.439Z,0.50
2024-05-09T23:54:26.455Z,0.40
2024-05-09T23:56:57.175Z,0.40
2024-05-09T23:59:27.754Z,0.70
